createdAt,value
2018-11-22T00:00:37.974Z,93469.39
2018-11-22T00:03:06.603Z,93473.98
2018-11-22T00:05:35.136Z,93480.70
2018-11-22T00:08:02.873Z,93473.17
2018-11-22T00:10:31.949Z,93476.95
2018-11-22T00:13:00.066Z,93469.39
2018-11-22T00:15:28.043Z,93473.18
2018-11-22T00:17:56.944Z,93474.86
2018-11-22T00:20:25.435Z,93478.63
2018-11-22T00:22:53.936Z,93479.88
2018-11-22T00:25:22.235Z,93480.73
2018-11-22T00:27:50.374Z,93479.05
2018-11-22T00:30:37.495Z,93482.41
2018-11-22T00:33:06.138Z,93483.26
2018-11-22T00:35:34.164Z,93478.64
2018-11-22T00:38:01.923Z,93485.34
2018-11-22T00:40:29.617Z,93490.80
2018-11-22T00:42:57.772Z,93486.59
2018-11-22T00:45:27.265Z,93494.57
2018-11-22T00:47:54.949Z,93491.63
2018-11-22T00:50:23.018Z,93495.00
2018-11-22T00:52:51.929Z,93489.54
2018-11-22T00:55:21.834Z,93499.63
2018-11-22T00:57:50.743Z,93501.74
2018-11-22T01:00:20.133Z,93502.58
2018-11-22T01:02:47.751Z,93500.89
2018-11-22T01:05:17.228Z,93507.19
2018-11-22T01:07:45.978Z,93513.88
2018-11-22T01:10:14.695Z,93510.52
2018-11-22T01:12:42.591Z,93517.26
2018-11-22T01:15:10.236Z,93516.83
2018-11-22T01:17:38.823Z,93507.17
2018-11-22T01:20:09.291Z,93510.95
2018-11-22T01:22:37.036Z,93504.66
2018-11-22T01:25:06.605Z,93505.48
2018-11-22T01:27:35.171Z,93506.31
2018-11-22T01:30:03.716Z,93510.12
2018-11-22T01:32:31.809Z,93506.73
2018-11-22T01:34:59.979Z,93507.59
2018-11-22T01:37:28.046Z,93502.11
2018-11-22T01:39:56.543Z,93503.80
2018-11-22T01:42:24.546Z,93499.64
2018-11-22T01:44:53.120Z,93503.84
2018-11-22T01:47:21.600Z,93503.39
2018-11-22T01:49:49.811Z,93494.60
2018-11-22T01:52:18.174Z,93497.13
2018-11-22T01:54:46.664Z,93492.94
2018-11-22T01:57:15.091Z,93502.14
2018-11-22T01:59:43.646Z,93499.22
2018-11-22T02:02:12.095Z,93498.81
2018-11-22T02:04:40.690Z,93500.48
2018-11-22T02:07:09.176Z,93499.63
2018-11-22T02:09:37.650Z,93504.67
2018-11-22T02:12:05.727Z,93501.75
2018-11-22T02:14:33.146Z,93504.70
2018-11-22T02:17:01.664Z,93501.73
2018-11-22T02:19:29.869Z,93508.89
2018-11-22T02:21:57.845Z,93506.77
2018-11-22T02:24:25.521Z,93503.86
2018-11-22T02:26:53.300Z,93508.02
2018-11-22T02:29:21.393Z,93503.84
2018-11-22T02:31:49.841Z,93506.77
2018-11-22T02:34:17.930Z,93501.69
2018-11-22T02:36:46.419Z,93506.75
2018-11-22T02:39:14.500Z,93499.59
2018-11-22T02:41:43.007Z,93497.92
2018-11-22T02:44:11.054Z,93500.41
2018-11-22T02:46:39.233Z,93501.26
2018-11-22T02:49:07.670Z,93500.03
2018-11-22T02:51:35.896Z,93513.47
2018-11-22T02:54:03.980Z,93509.26
2018-11-22T02:56:32.430Z,93506.74
2018-11-22T02:59:00.956Z,93505.06
2018-11-22T03:01:29.431Z,93509.28
2018-11-22T03:03:57.614Z,93501.70
2018-11-22T03:06:26.195Z,93502.52
2018-11-22T03:08:54.389Z,93500.41
2018-11-22T03:11:22.868Z,93499.16
2018-11-22T03:13:51.063Z,93507.55
2018-11-22T03:16:19.245Z,93509.22
2018-11-22T03:18:47.410Z,93501.66
2018-11-22T03:21:15.069Z,93506.25
2018-11-22T03:23:43.266Z,93507.98
2018-11-22T03:26:11.434Z,93506.30
2018-11-22T03:28:39.201Z,93500.45
2018-11-22T03:31:07.356Z,93502.11
2018-11-22T03:33:35.927Z,93499.59
2018-11-22T03:36:04.541Z,93505.89
2018-11-22T03:38:33.056Z,93506.33
2018-11-22T03:41:01.121Z,93507.56
2018-11-22T03:43:28.940Z,93507.97
2018-11-22T03:45:56.563Z,93508.38
2018-11-22T03:48:25.174Z,93506.71
2018-11-22T03:50:53.358Z,93514.28
2018-11-22T03:53:20.729Z,93513.02
2018-11-22T03:55:48.497Z,93511.77
2018-11-22T03:58:15.824Z,93508.39
2018-11-22T04:00:43.624Z,93515.16
2018-11-22T04:03:11.781Z,93518.53
2018-11-22T04:05:40.261Z,93520.58
2018-11-22T04:08:08.770Z,93521.02
2018-11-22T04:10:36.857Z,93520.17
2018-11-22T04:13:04.196Z,93518.50
2018-11-22T04:15:32.780Z,93518.08
2018-11-22T04:18:00.461Z,93516.81
2018-11-22T04:20:30.471Z,93514.70
2018-11-22T04:22:58.955Z,93513.02
2018-11-22T04:25:26.731Z,93513.02
2018-11-22T04:27:55.214Z,93515.13
2018-11-22T04:30:42.904Z,93509.66
2018-11-22T04:33:10.305Z,93507.14
2018-11-22T04:35:38.786Z,93510.53
2018-11-22T04:38:07.007Z,93511.36
2018-11-22T04:40:35.287Z,93515.14
2018-11-22T04:43:03.563Z,93513.91
2018-11-22T04:45:32.079Z,93516.43
2018-11-22T04:48:03.472Z,93516.41
2018-11-22T04:50:33.525Z,93521.44
2018-11-22T04:53:01.721Z,93518.91
2018-11-22T04:55:29.950Z,93529.02
2018-11-22T04:57:58.093Z,93525.23
2018-11-22T05:00:26.412Z,93527.72
2018-11-22T05:02:54.599Z,93523.94
2018-11-22T05:05:24.064Z,93528.14
2018-11-22T05:07:52.272Z,93528.98
2018-11-22T05:10:39.469Z,93518.51
2018-11-22T05:13:07.142Z,93523.98
2018-11-22T05:15:35.670Z,93517.66
2018-11-22T05:18:03.437Z,93520.59
2018-11-22T05:20:32.032Z,93520.17
2018-11-22T05:23:00.537Z,93524.40
2018-11-22T05:25:29.065Z,93525.69
2018-11-22T05:27:57.309Z,93525.66
2018-11-22T05:30:27.471Z,93529.45
2018-11-22T05:32:55.278Z,93523.14
2018-11-22T05:35:23.546Z,93527.34
2018-11-22T05:37:52.202Z,93526.08
2018-11-22T05:40:21.637Z,93526.06
2018-11-22T05:42:49.830Z,93528.61
2018-11-22T05:45:18.841Z,93531.56
2018-11-22T05:47:46.862Z,93530.28
2018-11-22T05:50:15.630Z,93523.56
2018-11-22T05:52:43.678Z,93536.20
2018-11-22T05:55:12.374Z,93541.23
2018-11-22T05:57:40.862Z,93539.52
2018-11-22T06:00:13.447Z,93541.20
2018-11-22T06:02:41.610Z,93538.27
2018-11-22T06:05:10.959Z,93541.20
2018-11-22T06:07:38.992Z,93539.55
2018-11-22T06:10:09.683Z,93541.20
2018-11-22T06:12:37.981Z,93543.73
2018-11-22T06:15:07.034Z,93544.16
2018-11-22T06:17:35.228Z,93545.86
2018-11-22T06:20:03.111Z,93544.16
2018-11-22T06:22:32.025Z,93539.13
2018-11-22T06:25:03.711Z,93544.14
2018-11-22T06:27:27.997Z,93542.00
2018-11-22T06:29:56.507Z,93540.32
2018-11-22T06:32:24.590Z,93539.08
2018-11-22T06:34:52.752Z,93538.23
2018-11-22T06:37:21.370Z,93539.86
2018-11-22T06:39:49.127Z,93544.50
2018-11-22T06:42:17.703Z,93547.88
2018-11-22T06:44:45.518Z,93545.80
2018-11-22T06:47:14.162Z,93549.17
2018-11-22T06:49:41.874Z,93560.10
2018-11-22T06:52:10.125Z,93551.70
2018-11-22T06:54:38.209Z,93556.33
2018-11-22T06:57:06.267Z,93555.05
2018-11-22T06:59:34.048Z,93555.08
2018-11-22T07:02:02.542Z,93558.03
2018-11-22T07:04:30.431Z,93559.30
2018-11-22T07:06:59.091Z,93555.52
2018-11-22T07:09:27.686Z,93557.64
2018-11-22T07:11:55.873Z,93556.38
2018-11-22T07:14:24.545Z,93558.92
2018-11-22T07:16:53.010Z,93561.86
2018-11-22T07:19:21.257Z,93558.08
2018-11-22T07:21:49.697Z,93556.83
2018-11-22T07:24:18.196Z,93556.84
2018-11-22T07:26:46.263Z,93552.63
2018-11-22T07:29:14.861Z,93552.63
2018-11-22T07:31:43.341Z,93554.73
2018-11-22T07:34:11.518Z,93555.16
2018-11-22T07:36:38.902Z,93559.37
2018-11-22T07:39:08.057Z,93551.79
2018-11-22T07:41:36.272Z,93557.69
2018-11-22T07:44:04.347Z,93551.38
2018-11-22T07:46:32.497Z,93551.38
2018-11-22T07:49:00.717Z,93548.02
2018-11-22T07:51:28.984Z,93555.16
2018-11-22T07:53:56.987Z,93558.53
2018-11-22T07:56:25.245Z,93561.88
2018-11-22T07:58:53.311Z,93558.52
2018-11-22T08:01:21.384Z,93566.52
2018-11-22T08:03:49.227Z,93563.55
2018-11-22T08:06:17.755Z,93567.77
2018-11-22T08:08:46.251Z,93569.45
2018-11-22T08:11:14.849Z,93566.50
2018-11-22T08:13:42.913Z,93567.74
2018-11-22T08:16:11.428Z,93563.11
2018-11-22T08:18:40.096Z,93566.05
2018-11-22T08:21:08.663Z,93563.52
2018-11-22T08:23:37.161Z,93570.67
2018-11-22T08:26:05.232Z,93570.66
2018-11-22T08:28:33.726Z,93565.61
2018-11-22T08:31:01.474Z,93565.98
2018-11-22T08:33:29.881Z,93566.82
2018-11-22T08:35:57.246Z,93570.20
2018-11-22T08:38:25.831Z,93568.89
2018-11-22T08:40:53.906Z,93570.13
2018-11-22T08:43:21.953Z,93575.19
2018-11-22T08:45:49.748Z,93576.44
2018-11-22T08:48:17.858Z,93586.09
2018-11-22T08:50:46.427Z,93590.30
2018-11-22T08:53:14.916Z,93594.47
2018-11-22T08:55:43.397Z,93592.74
2018-11-22T08:58:11.055Z,93588.87
2018-11-22T09:00:39.249Z,93590.09
2018-11-22T09:03:06.512Z,93595.98
2018-11-22T09:05:36.118Z,93598.48
2018-11-22T09:08:04.302Z,93603.89
2018-11-22T09:10:32.793Z,93605.55
2018-11-22T09:13:01.897Z,93603.00
2018-11-22T09:15:31.527Z,93611.00
2018-11-22T09:17:58.782Z,93611.83
2018-11-22T09:20:28.371Z,93608.49
2018-11-22T09:22:56.473Z,93611.84
2018-11-22T09:25:23.997Z,93617.33
2018-11-22T09:27:51.682Z,93618.55
2018-11-22T09:30:39.226Z,93617.69
2018-11-22T09:33:07.695Z,93619.34
2018-11-22T09:35:36.028Z,93624.41
2018-11-22T09:38:04.549Z,93626.02
2018-11-22T09:40:34.322Z,93622.54
2018-11-22T09:43:02.574Z,93616.63
2018-11-22T09:45:31.535Z,93619.98
2018-11-22T09:47:59.630Z,93618.30
2018-11-22T09:50:28.216Z,93615.31
2018-11-22T09:53:00.179Z,93618.23
2018-11-22T09:55:28.575Z,93619.91
2018-11-22T09:57:56.615Z,93619.40
2018-11-22T10:00:25.235Z,93618.89
2018-11-22T10:02:52.708Z,93620.73
2018-11-22T10:05:24.581Z,93623.05
2018-11-22T10:07:52.805Z,93616.52
2018-11-22T10:10:22.294Z,93611.61
2018-11-22T10:12:50.448Z,93612.02
2018-11-22T10:15:19.633Z,93611.91
2018-11-22T10:17:47.297Z,93611.80
2018-11-22T10:20:17.901Z,93614.80
2018-11-22T10:22:46.741Z,93613.97
2018-11-22T10:25:15.117Z,93606.75
2018-11-22T10:27:43.301Z,93608.09
2018-11-22T10:30:30.505Z,93607.73
2018-11-22T10:32:59.922Z,93609.14
2018-11-22T10:35:47.066Z,93609.94
2018-11-22T10:38:15.217Z,93614.89
2018-11-22T10:40:43.382Z,93615.96
2018-11-22T10:43:11.458Z,93614.13
2018-11-22T10:45:39.655Z,93610.70
2018-11-22T10:48:09.467Z,93612.47
2018-11-22T10:50:38.094Z,93605.92
2018-11-22T10:53:06.049Z,93608.07
2018-11-22T10:55:35.729Z,93615.41
2018-11-22T10:58:03.973Z,93610.62
2018-11-22T11:00:51.653Z,93611.25
2018-11-22T11:03:39.211Z,93604.50
2018-11-22T11:06:26.121Z,93612.91
2018-11-22T11:08:54.762Z,93605.59
2018-11-22T11:11:22.537Z,93611.80
2018-11-22T11:13:50.712Z,93613.30
2018-11-22T11:16:18.882Z,93606.24
2018-11-22T11:18:47.403Z,93608.14
2018-11-22T11:21:15.306Z,93609.30
2018-11-22T11:23:43.902Z,93603.75
2018-11-22T11:26:11.919Z,93603.80
2018-11-22T11:28:40.515Z,93601.78
2018-11-22T11:31:08.344Z,93601.27
2018-11-22T11:33:36.366Z,93597.14
2018-11-22T11:36:04.420Z,93592.41
2018-11-22T11:38:32.913Z,93586.33
2018-11-22T11:41:00.720Z,93578.41
2018-11-22T11:43:28.032Z,93585.89
2018-11-22T11:45:56.538Z,93583.14
2018-11-22T11:48:24.985Z,93582.64
2018-11-22T11:50:53.528Z,93585.80
2018-11-22T11:53:27.106Z,93579.12
2018-11-22T11:55:49.664Z,93579.36
2018-11-22T11:58:17.337Z,93581.36
2018-11-22T12:00:46.036Z,93578.00
2018-11-22T12:03:14.207Z,93575.44
2018-11-22T12:05:42.390Z,93571.48
2018-11-22T12:08:11.089Z,93570.29
2018-11-22T12:10:39.073Z,93569.00
2018-11-22T12:13:07.339Z,93573.16
2018-11-22T12:15:34.998Z,93565.14
2018-11-22T12:18:02.667Z,93558.64
2018-11-22T12:20:31.122Z,93558.12
2018-11-22T12:22:59.448Z,93560.20
2018-11-22T12:25:28.223Z,93556.70
2018-11-22T12:27:57.340Z,93558.77
2018-11-22T12:30:26.536Z,93563.41
2018-11-22T12:33:13.826Z,93554.52
2018-11-22T12:36:01.234Z,93564.31
2018-11-22T12:38:47.938Z,93569.09
2018-11-22T12:41:16.054Z,93568.73
2018-11-22T12:43:43.837Z,93571.14
2018-11-22T12:46:12.308Z,93569.85
2018-11-22T12:48:41.277Z,93559.86
2018-11-22T12:51:09.467Z,93558.50
2018-11-22T12:53:37.966Z,93559.04
2018-11-22T12:56:05.757Z,93557.80
2018-11-22T12:58:33.841Z,93556.02
2018-11-22T13:01:02.209Z,93555.03
2018-11-22T13:03:30.671Z,93560.55
2018-11-22T13:05:58.872Z,93569.53
2018-11-22T13:08:27.071Z,93562.57
2018-11-22T13:10:55.292Z,93563.36
2018-11-22T13:13:23.389Z,93565.59
2018-11-22T13:15:51.495Z,93563.56
2018-11-22T13:18:19.959Z,93566.09
2018-11-22T13:20:47.750Z,93561.26
2018-11-22T13:23:16.334Z,93561.95
2018-11-22T13:25:44.848Z,93562.55
2018-11-22T13:28:12.898Z,93556.62
2018-11-22T13:30:40.570Z,93561.64
2018-11-22T13:33:08.748Z,93571.62
2018-11-22T13:35:37.250Z,93566.23
2018-11-22T13:38:05.000Z,93569.25
2018-11-22T13:40:33.078Z,93566.85
2018-11-22T13:43:01.554Z,93564.67
2018-11-22T13:45:30.011Z,93567.22
2018-11-22T13:47:58.744Z,93570.97
2018-11-22T13:50:28.125Z,93565.77
2018-11-22T13:53:20.475Z,93573.94
2018-11-22T13:55:43.252Z,93567.06
2018-11-22T13:58:11.759Z,93570.81
2018-11-22T14:00:39.896Z,93570.33
2018-11-22T14:03:08.404Z,93575.31
2018-11-22T14:05:36.971Z,93576.83
2018-11-22T14:08:04.651Z,93570.91
2018-11-22T14:10:32.748Z,93576.47
2018-11-22T14:13:01.181Z,93578.03
2018-11-22T14:15:32.738Z,93584.44
2018-11-22T14:18:19.503Z,93580.19
2018-11-22T14:20:47.563Z,93575.13
2018-11-22T14:23:16.018Z,93582.58
2018-11-22T14:25:49.003Z,93582.91
2018-11-22T14:28:13.019Z,93584.29
2018-11-22T14:30:40.414Z,93585.02
2018-11-22T14:33:08.260Z,93582.86
2018-11-22T14:35:35.595Z,93580.39
2018-11-22T14:38:03.037Z,93579.97
2018-11-22T14:40:32.441Z,93585.56
2018-11-22T14:43:00.950Z,93585.21
2018-11-22T14:45:29.134Z,93587.91
2018-11-22T14:47:58.211Z,93588.78
2018-11-22T14:50:31.151Z,93582.43
2018-11-22T14:53:21.293Z,93583.80
2018-11-22T14:55:49.235Z,93585.20
2018-11-22T14:58:17.012Z,93582.08
2018-11-22T15:00:44.922Z,93584.70
2018-11-22T15:03:13.500Z,93583.50
2018-11-22T15:05:41.976Z,93591.45
2018-11-22T15:08:29.079Z,93589.88
2018-11-22T15:10:57.214Z,93596.34
2018-11-22T15:13:25.681Z,93597.84
2018-11-22T15:15:54.173Z,93609.73
2018-11-22T15:18:22.367Z,93607.97
2018-11-22T15:20:50.034Z,93609.48
2018-11-22T15:23:18.335Z,93607.34
2018-11-22T15:25:46.485Z,93617.89
2018-11-22T15:28:14.654Z,93610.62
2018-11-22T15:30:42.429Z,93610.95
2018-11-22T15:33:10.538Z,93609.98
2018-11-22T15:35:38.671Z,93609.80
2018-11-22T15:38:06.566Z,93613.39
2018-11-22T15:40:34.752Z,93614.02
2018-11-22T15:43:03.457Z,93614.18
2018-11-22T15:45:35.229Z,93617.27
2018-11-22T15:48:00.235Z,93630.48
2018-11-22T15:50:28.872Z,93626.84
2018-11-22T15:52:57.497Z,93628.23
2018-11-22T15:55:26.245Z,93637.20
2018-11-22T15:57:56.299Z,93644.00
2018-11-22T16:00:28.574Z,93637.34
2018-11-22T16:02:57.649Z,93640.34
2018-11-22T16:05:26.443Z,93642.95
2018-11-22T16:07:54.542Z,93648.51
2018-11-22T16:10:26.907Z,93649.42
2018-11-22T16:13:12.755Z,93649.52
2018-11-22T16:15:59.915Z,93651.64
2018-11-22T16:18:27.434Z,93644.56
2018-11-22T16:20:55.566Z,93650.90
2018-11-22T16:23:23.614Z,93643.34
2018-11-22T16:25:51.796Z,93648.02
2018-11-22T16:28:19.549Z,93655.59
2018-11-22T16:30:47.680Z,93654.33
2018-11-22T16:33:15.728Z,93653.52
2018-11-22T16:35:44.275Z,93652.69
2018-11-22T16:38:12.430Z,93653.97
2018-11-22T16:40:40.983Z,93651.46
2018-11-22T16:43:08.655Z,93650.61
2018-11-22T16:45:37.448Z,93651.45
2018-11-22T16:48:07.636Z,93656.94
2018-11-22T16:50:37.249Z,93661.56
2018-11-22T16:53:05.996Z,93666.19
2018-11-22T16:55:34.051Z,93665.36
2018-11-22T16:58:02.673Z,93662.81
2018-11-22T17:00:34.199Z,93664.92
2018-11-22T17:03:03.607Z,93665.77
2018-11-22T17:05:32.405Z,93661.98
2018-11-22T17:08:01.211Z,93667.45
2018-11-22T17:10:30.525Z,93669.98
2018-11-22T17:12:59.300Z,93672.93
2018-11-22T17:15:28.993Z,93674.17
2018-11-22T17:17:57.889Z,93678.80
2018-11-22T17:20:27.150Z,93675.44
2018-11-22T17:22:55.295Z,93671.68
2018-11-22T17:25:25.108Z,93674.61
2018-11-22T17:27:55.225Z,93668.30
2018-11-22T17:30:25.560Z,93670.81
2018-11-22T17:32:54.115Z,93676.70
2018-11-22T17:35:23.358Z,93672.47
2018-11-22T17:37:52.794Z,93676.27
2018-11-22T17:40:39.773Z,93672.47
2018-11-22T17:43:08.028Z,93674.58
2018-11-22T17:45:37.568Z,93676.66
2018-11-22T17:48:06.043Z,93680.84
2018-11-22T17:50:35.272Z,93676.61
2018-11-22T17:53:03.890Z,93677.86
2018-11-22T17:55:32.414Z,93675.75
2018-11-22T17:58:00.273Z,93674.08
2018-11-22T18:00:32.710Z,93675.39
2018-11-22T18:03:02.275Z,93677.88
2018-11-22T18:05:30.480Z,93688.41
2018-11-22T18:07:58.618Z,93691.33
2018-11-22T18:10:28.465Z,93685.41
2018-11-22T18:12:57.462Z,93690.84
2018-11-22T18:15:26.069Z,93698.36
2018-11-22T18:17:54.130Z,93692.48
2018-11-22T18:20:26.518Z,93700.95
2018-11-22T18:22:56.129Z,93702.63
2018-11-22T18:25:25.718Z,93704.30
2018-11-22T18:27:54.041Z,93706.39
2018-11-22T18:30:23.106Z,93707.72
2018-11-22T18:33:10.411Z,93707.30
2018-11-22T18:35:38.983Z,93705.61
2018-11-22T18:38:07.309Z,93705.62
2018-11-22T18:40:37.430Z,93713.62
2018-11-22T18:43:05.821Z,93710.25
2018-11-22T18:45:35.517Z,93715.30
2018-11-22T18:48:04.469Z,93713.64
2018-11-22T18:50:59.448Z,93717.84
2018-11-22T18:53:28.020Z,93709.88
2018-11-22T18:55:56.076Z,93715.76
2018-11-22T18:58:24.069Z,93719.53
2018-11-22T19:00:51.435Z,93718.27
2018-11-22T19:03:19.904Z,93715.31
2018-11-22T19:05:48.279Z,93719.53
2018-11-22T19:08:15.945Z,93726.28
2018-11-22T19:10:44.432Z,93728.41
2018-11-22T19:13:13.030Z,93728.40
2018-11-22T19:15:42.960Z,93733.45
2018-11-22T19:18:12.088Z,93729.25
2018-11-22T19:20:41.059Z,93733.47
2018-11-22T19:23:09.336Z,93734.28
2018-11-22T19:25:37.093Z,93733.88
2018-11-22T19:28:05.459Z,93727.11
2018-11-22T19:30:52.996Z,93725.47
2018-11-22T19:33:21.108Z,93721.70
2018-11-22T19:35:56.631Z,93725.42
2018-11-22T19:38:25.215Z,93729.19
2018-11-22T19:40:53.809Z,93725.39
2018-11-22T19:43:22.265Z,93719.05
2018-11-22T19:45:49.851Z,93730.81
2018-11-22T19:48:18.026Z,93728.27
2018-11-22T19:50:46.523Z,93734.59
2018-11-22T19:53:15.525Z,93730.79
2018-11-22T19:55:43.395Z,93732.50
2018-11-22T19:58:12.529Z,93735.44
2018-11-22T20:00:40.780Z,93737.95
2018-11-22T20:03:09.864Z,93742.16
2018-11-22T20:05:39.597Z,93743.39
2018-11-22T20:08:08.917Z,93744.66
2018-11-22T20:10:38.475Z,93746.73
2018-11-22T20:13:06.579Z,93742.11
2018-11-22T20:15:35.254Z,93737.88
2018-11-22T20:18:04.264Z,93737.45
2018-11-22T20:20:32.778Z,93740.30
2018-11-22T20:23:01.065Z,93736.09
2018-11-22T20:25:29.040Z,93737.79
2018-11-22T20:27:57.228Z,93740.33
2018-11-22T20:30:29.711Z,93742.75
2018-11-22T20:32:58.299Z,93745.66
2018-11-22T20:35:26.343Z,93745.65
2018-11-22T20:37:54.733Z,93743.64
2018-11-22T20:40:23.943Z,93742.38
2018-11-22T20:42:52.013Z,93744.00
2018-11-22T20:45:21.001Z,93749.42
2018-11-22T20:47:50.604Z,93745.59
2018-11-22T20:50:20.007Z,93749.30
2018-11-22T20:52:48.210Z,93749.30
2018-11-22T20:55:18.416Z,93745.16
2018-11-22T20:57:47.766Z,93744.69
2018-11-22T21:00:17.226Z,93747.65
2018-11-22T21:02:45.260Z,93745.97
2018-11-22T21:05:13.708Z,93749.28
2018-11-22T21:07:42.139Z,93755.95
2018-11-22T21:10:30.059Z,93755.06
2018-11-22T21:12:58.228Z,93751.29
2018-11-22T21:15:45.581Z,93749.53
2018-11-22T21:18:14.233Z,93747.80
2018-11-22T21:20:42.396Z,93743.53
2018-11-22T21:23:10.190Z,93748.53
2018-11-22T21:25:37.832Z,93746.05
2018-11-22T21:28:06.101Z,93746.85
2018-11-22T21:30:35.835Z,93748.59
2018-11-22T21:33:03.604Z,93751.55
2018-11-22T21:35:32.191Z,93757.42
2018-11-22T21:38:01.412Z,93754.46
2018-11-22T21:40:30.203Z,93761.95
2018-11-22T21:42:58.260Z,93751.44
2018-11-22T21:45:27.101Z,93754.73
2018-11-22T21:47:54.827Z,93748.42
2018-11-22T21:50:24.129Z,93750.87
2018-11-22T21:52:52.332Z,93749.17
2018-11-22T21:55:22.080Z,93750.03
2018-11-22T21:57:50.209Z,93747.61
2018-11-22T22:00:30.364Z,93756.38
2018-11-22T22:03:00.179Z,93756.36
2018-11-22T22:05:28.345Z,93763.42
2018-11-22T22:07:56.549Z,93768.91
2018-11-22T22:10:24.650Z,93770.12
2018-11-22T22:12:52.683Z,93768.42
2018-11-22T22:15:22.284Z,93767.09
2018-11-22T22:17:50.302Z,93772.94
2018-11-22T22:20:38.686Z,93772.97
2018-11-22T22:23:13.279Z,93769.97
2018-11-22T22:25:35.410Z,93769.06
2018-11-22T22:28:03.765Z,93773.64
2018-11-22T22:30:32.487Z,93779.99
2018-11-22T22:33:02.234Z,93773.60
2018-11-22T22:35:29.541Z,93772.34
2018-11-22T22:37:57.299Z,93775.91
2018-11-22T22:40:26.031Z,93772.16
2018-11-22T22:42:55.508Z,93771.32
2018-11-22T22:45:24.671Z,93779.77
2018-11-22T22:47:53.431Z,93767.06
2018-11-22T22:50:22.969Z,93769.58
2018-11-22T22:52:52.378Z,93774.19
2018-11-22T22:55:20.115Z,93771.67
2018-11-22T22:57:47.437Z,93773.70
2018-11-22T23:00:53.682Z,93765.33
2018-11-22T23:03:22.200Z,93767.91
2018-11-22T23:05:49.560Z,93760.36
2018-11-22T23:08:17.205Z,93761.20
2018-11-22T23:10:45.314Z,93760.03
2018-11-22T23:13:13.795Z,93764.71
2018-11-22T23:15:41.973Z,93761.06
2018-11-22T23:18:10.051Z,93756.36
2018-11-22T23:20:38.574Z,93757.91
2018-11-22T23:23:06.791Z,93760.33
2018-11-22T23:25:35.282Z,93760.68
2018-11-22T23:28:03.411Z,93759.77
2018-11-22T23:30:32.578Z,93760.39
2018-11-22T23:33:01.698Z,93753.45
2018-11-22T23:35:29.745Z,93758.78
2018-11-22T23:37:58.317Z,93752.97
2018-11-22T23:40:27.296Z,93753.78
2018-11-22T23:42:55.409Z,93745.69
2018-11-22T23:45:28.292Z,93751.10
2018-11-22T23:47:57.148Z,93750.23
2018-11-22T23:50:25.925Z,93739.27
2018-11-22T23:52:55.479Z,93734.02
2018-11-22T23:55:23.191Z,93734.02
2018-11-22T23:57:51.037Z,93732.98
